createdAt,value
2022-09-14T00:00:00.566Z,87.1
2022-09-14T00:01:23.684Z,86.9
2022-09-14T00:02:00.912Z,86.6
2022-09-14T00:03:01.117Z,86.5
2022-09-14T00:04:01.150Z,86.3
2022-09-14T00:05:00.299Z,86.5
2022-09-14T00:06:00.454Z,86.6
2022-09-14T00:07:00.576Z,86.6
2022-09-14T00:08:00.723Z,86.4
2022-09-14T00:09:00.888Z,86.4
2022-09-14T00:10:01.024Z,86.5
2022-09-14T00:11:01.156Z,86.5
2022-09-14T00:12:00.309Z,86.6
2022-09-14T00:13:00.491Z,86.7
2022-09-14T00:14:00.632Z,86.6
2022-09-14T00:15:00.763Z,86.7
2022-09-14T00:16:00.910Z,86.8
2022-09-14T00:17:01.106Z,86.9
2022-09-14T00:18:01.200Z,86.8
2022-09-14T00:19:00.384Z,87
2022-09-14T00:20:00.494Z,87.1
2022-09-14T00:21:00.638Z,87.1
2022-09-14T00:22:00.786Z,87
2022-09-14T00:23:00.934Z,86.9
2022-09-14T00:24:01.097Z,87
2022-09-14T00:25:01.238Z,87.1
2022-09-14T00:26:00.371Z,87.1
2022-09-14T00:27:00.522Z,87
2022-09-14T00:28:00.669Z,87.1
2022-09-14T00:29:00.827Z,87.1
2022-09-14T00:30:00.976Z,87
2022-09-14T00:31:01.147Z,87
2022-09-14T00:32:00.401Z,86.9
2022-09-14T00:33:00.408Z,86.7
2022-09-14T00:34:00.562Z,86.6
2022-09-14T00:35:00.698Z,86.7
2022-09-14T00:36:00.871Z,86.7
2022-09-14T00:37:01.000Z,86.8
2022-09-14T00:38:01.148Z,86.9
2022-09-14T00:39:00.319Z,87.1
2022-09-14T00:40:00.540Z,87.2
2022-09-14T00:41:00.592Z,87.1
2022-09-14T00:42:00.748Z,87.1
2022-09-14T00:43:00.889Z,87.2
2022-09-14T00:44:01.052Z,87.3
2022-09-14T00:45:01.178Z,87.3
2022-09-14T00:46:00.453Z,87.3
2022-09-14T00:47:00.488Z,87.3
2022-09-14T00:48:00.634Z,87.3
2022-09-14T00:49:00.796Z,87.3
2022-09-14T00:50:00.940Z,87.4
2022-09-14T00:51:01.076Z,87.4
2022-09-14T00:52:01.253Z,87.3
2022-09-14T00:53:00.367Z,87.3
2022-09-14T00:54:00.544Z,87.1
2022-09-14T00:55:00.671Z,87
2022-09-14T00:56:00.810Z,87.3
2022-09-14T00:57:00.972Z,87.2
2022-09-14T00:58:01.118Z,87.1
2022-09-14T00:59:00.280Z,86.9
2022-09-14T01:00:00.446Z,87.1
2022-09-14T01:01:00.635Z,87.1
2022-09-14T01:02:00.758Z,87.3
2022-09-14T01:03:00.866Z,87.4
2022-09-14T01:04:01.017Z,87.6
2022-09-14T01:05:01.184Z,87.5
2022-09-14T01:06:00.314Z,87.6
2022-09-14T01:07:00.445Z,87.4
2022-09-14T01:08:00.598Z,87.5
2022-09-14T01:09:00.755Z,87.6
2022-09-14T01:10:00.921Z,87.7
2022-09-14T01:11:01.070Z,87.7
2022-09-14T01:12:01.213Z,87.7
2022-09-14T01:13:00.364Z,87.6
2022-09-14T01:14:00.518Z,87.5
2022-09-14T01:15:00.660Z,87.7
2022-09-14T01:16:00.865Z,87.7
2022-09-14T01:17:00.964Z,87.7
2022-09-14T01:18:01.100Z,87.5
2022-09-14T01:20:00.381Z,87.8
2022-09-14T01:21:00.498Z,87.9
2022-09-14T01:22:00.656Z,87.8
2022-09-14T01:23:00.802Z,87.9
2022-09-14T01:24:00.943Z,87.8
2022-09-14T01:25:01.119Z,87.8
2022-09-14T01:26:01.242Z,87.9
2022-09-14T01:27:00.388Z,88
2022-09-14T01:28:00.527Z,88
2022-09-14T01:29:00.680Z,88.1
2022-09-14T01:30:00.856Z,88.1
2022-09-14T01:31:00.991Z,88.1
2022-09-14T01:32:01.183Z,88.1
2022-09-14T01:33:00.294Z,87.8
2022-09-14T01:34:00.425Z,88
2022-09-14T01:35:00.601Z,87.8
2022-09-14T01:36:00.744Z,87.9
2022-09-14T01:37:00.870Z,88
2022-09-14T01:38:01.018Z,87.9
2022-09-14T01:39:01.159Z,88
2022-09-14T01:40:00.384Z,88.1
2022-09-14T01:41:00.459Z,88
2022-09-14T01:42:00.612Z,88
2022-09-14T01:43:00.739Z,88
2022-09-14T01:44:00.881Z,88
2022-09-14T01:45:01.026Z,88.2
2022-09-14T01:46:01.280Z,88.1
2022-09-14T01:47:00.344Z,88.2
2022-09-14T01:48:00.489Z,88.2
2022-09-14T01:49:00.609Z,88.2
2022-09-14T01:50:00.762Z,88.1
2022-09-14T01:51:00.915Z,87.9
2022-09-14T01:52:01.064Z,88
2022-09-14T01:53:01.233Z,87.8
2022-09-14T01:54:00.354Z,87.9
2022-09-14T01:55:00.516Z,88.1
2022-09-14T01:56:00.652Z,88.2
2022-09-14T01:57:00.797Z,88
2022-09-14T01:58:00.962Z,88.1
2022-09-14T01:59:01.126Z,88.1
2022-09-14T02:00:01.243Z,88.2
2022-09-14T02:01:00.442Z,88.2
2022-09-14T02:02:00.617Z,88.1
2022-09-14T02:03:00.697Z,87.9
2022-09-14T02:04:00.886Z,87.8
2022-09-14T02:05:01.009Z,87.7
2022-09-14T02:06:01.156Z,87.7
2022-09-14T02:07:00.296Z,87.8
2022-09-14T02:08:00.447Z,87.8
2022-09-14T02:09:00.620Z,88
2022-09-14T02:10:00.739Z,88.1
2022-09-14T02:11:00.884Z,88.1
2022-09-14T02:12:01.051Z,88.1
2022-09-14T02:13:01.183Z,88.1
2022-09-14T02:14:00.342Z,87.9
2022-09-14T02:15:00.475Z,88.1
2022-09-14T02:16:00.661Z,87.9
2022-09-14T02:17:00.774Z,88
2022-09-14T02:18:00.924Z,87.8
2022-09-14T02:19:01.080Z,87.9
2022-09-14T02:20:01.199Z,88
2022-09-14T02:21:00.355Z,87.8
2022-09-14T02:22:00.494Z,87.7
2022-09-14T02:23:00.656Z,87.8
2022-09-14T02:24:00.815Z,87.7
2022-09-14T02:25:00.948Z,87.6
2022-09-14T02:26:01.086Z,87.7
2022-09-14T02:27:01.223Z,87.7
2022-09-14T02:28:00.373Z,87.7
2022-09-14T02:29:00.537Z,87.8
2022-09-14T02:30:00.699Z,87.7
2022-09-14T02:31:00.872Z,87.6
2022-09-14T02:32:00.962Z,87.7
2022-09-14T02:33:01.107Z,87.9
2022-09-14T02:34:00.259Z,88
2022-09-14T02:35:00.404Z,88
2022-09-14T02:36:00.540Z,88
2022-09-14T02:37:00.683Z,88.1
2022-09-14T02:38:00.845Z,88.2
2022-09-14T02:39:00.992Z,88.3
2022-09-14T02:40:01.237Z,88.4
2022-09-14T02:41:00.280Z,88.5
2022-09-14T02:42:00.424Z,88.4
2022-09-14T02:43:00.569Z,88.5
2022-09-14T02:44:00.719Z,88.7
2022-09-14T02:45:00.875Z,88.7
2022-09-14T02:46:01.002Z,88.8
2022-09-14T02:47:01.195Z,88.8
2022-09-14T02:48:00.302Z,88.7
2022-09-14T02:49:00.469Z,88.9
2022-09-14T02:50:00.596Z,89
2022-09-14T02:51:00.743Z,89
2022-09-14T02:52:00.890Z,89.1
2022-09-14T02:53:01.033Z,89
2022-09-14T02:54:01.213Z,89.1
2022-09-14T02:55:00.320Z,89.1
2022-09-14T02:56:00.470Z,89.1
2022-09-14T02:57:00.620Z,88.9
2022-09-14T02:58:00.771Z,88.9
2022-09-14T02:59:00.944Z,89.1
2022-09-14T03:00:01.068Z,89.1
2022-09-14T03:01:01.279Z,89.2
2022-09-14T03:02:00.467Z,89.1
2022-09-14T03:03:00.508Z,89.3
2022-09-14T03:04:00.689Z,89.4
2022-09-14T03:05:00.820Z,89.3
2022-09-14T03:06:00.971Z,89.2
2022-09-14T03:07:01.121Z,89.3
2022-09-14T03:08:00.258Z,89.3
2022-09-14T03:09:00.425Z,89.3
2022-09-14T03:10:00.594Z,89.4
2022-09-14T03:11:00.707Z,89.5
2022-09-14T03:12:00.852Z,89.6
2022-09-14T03:13:01.000Z,89.6
2022-09-14T03:14:01.140Z,89.6
2022-09-14T03:15:00.326Z,89.6
2022-09-14T03:16:00.499Z,89.6
2022-09-14T03:17:00.588Z,89.6
2022-09-14T03:18:00.735Z,89.7
2022-09-14T03:19:00.880Z,89.6
2022-09-14T03:20:01.051Z,89.6
2022-09-14T03:21:01.167Z,89.7
2022-09-14T03:22:00.320Z,89.8
2022-09-14T03:23:00.459Z,89.9
2022-09-14T03:24:00.599Z,89.9
2022-09-14T03:25:00.777Z,89.9
2022-09-14T03:26:00.902Z,90
2022-09-14T03:27:01.043Z,90
2022-09-14T03:28:01.195Z,90.1
2022-09-14T03:29:00.376Z,90
2022-09-14T03:30:00.534Z,90.1
2022-09-14T03:31:00.732Z,90
2022-09-14T03:32:00.792Z,90
2022-09-14T03:33:00.941Z,90
2022-09-14T03:34:01.097Z,90.1
2022-09-14T03:35:01.271Z,90.1
2022-09-14T03:36:00.403Z,90.1
2022-09-14T03:37:00.540Z,90.1
2022-09-14T03:38:00.689Z,90.1
2022-09-14T03:39:00.834Z,90.1
2022-09-14T03:40:01.063Z,90.1
2022-09-14T03:41:01.133Z,90.1
2022-09-14T03:42:00.275Z,90.1
2022-09-14T03:43:00.435Z,90.1
2022-09-14T03:44:00.566Z,90.2
2022-09-14T03:45:00.744Z,90.2
2022-09-14T03:46:00.897Z,90.3
2022-09-14T03:47:01.086Z,90.4
2022-09-14T03:48:01.169Z,90.3
2022-09-14T03:49:00.315Z,90.3
2022-09-14T03:50:00.463Z,90.4
2022-09-14T03:51:00.627Z,90.4
2022-09-14T03:52:00.763Z,90.4
2022-09-14T03:53:00.909Z,90.4
2022-09-14T03:54:01.064Z,90.4
2022-09-14T03:55:01.217Z,90.5
2022-09-14T03:56:00.375Z,90.6
2022-09-14T03:57:00.515Z,90.6
2022-09-14T03:58:00.664Z,90.6
2022-09-14T03:59:00.804Z,90.6
2022-09-14T04:00:00.950Z,90.7
2022-09-14T04:01:01.115Z,90.6
2022-09-14T04:02:01.354Z,90.5
2022-09-14T04:03:00.449Z,90.4
2022-09-14T04:04:00.568Z,90.4
2022-09-14T04:05:00.703Z,90.5
2022-09-14T04:06:00.856Z,90.4
2022-09-14T04:07:01.005Z,90.4
2022-09-14T04:08:01.120Z,90.4
2022-09-14T04:09:00.270Z,90.4
2022-09-14T04:10:00.426Z,90.4
2022-09-14T04:11:00.585Z,90.5
2022-09-14T04:12:00.755Z,90.5
2022-09-14T04:13:00.862Z,90.5
2022-09-14T04:14:01.019Z,90.6
2022-09-14T04:15:01.172Z,90.6
2022-09-14T04:16:00.384Z,90.7
2022-09-14T04:17:00.473Z,90.7
2022-09-14T04:18:01.604Z,90.7
2022-09-14T04:19:00.768Z,90.7
2022-09-14T04:20:00.911Z,90.7
2022-09-14T04:21:05.736Z,90.8
2022-09-14T04:22:01.247Z,90.6
2022-09-14T04:23:00.361Z,90.7
2022-09-14T04:24:14.596Z,90.5
2022-09-14T04:25:00.666Z,90.3
2022-09-14T04:26:00.824Z,90.2
2022-09-14T04:27:00.983Z,90.3
2022-09-14T04:28:19.245Z,90.4
2022-09-14T04:29:00.268Z,90.4
2022-09-14T04:30:00.424Z,90.5
2022-09-14T04:31:00.597Z,90.6
2022-09-14T04:32:00.716Z,90.7
2022-09-14T04:33:00.856Z,90.8
2022-09-14T04:34:01.032Z,90.9
2022-09-14T04:35:01.144Z,90.9
2022-09-14T04:36:00.292Z,91
2022-09-14T04:37:00.460Z,91
2022-09-14T04:38:00.607Z,91
2022-09-14T04:39:00.770Z,91
2022-09-14T04:40:00.957Z,91.1
2022-09-14T04:41:01.035Z,91.1
2022-09-14T04:42:01.207Z,91.1
2022-09-14T04:43:00.322Z,91
2022-09-14T04:44:00.488Z,90.9
2022-09-14T04:45:00.612Z,90.9
2022-09-14T04:46:00.771Z,90.9
2022-09-14T04:47:00.941Z,90.9
2022-09-14T04:48:01.061Z,90.9
2022-09-14T04:49:01.218Z,91
2022-09-14T04:50:00.342Z,90.9
2022-09-14T04:52:00.688Z,90.8
2022-09-14T04:53:00.779Z,90.7
2022-09-14T04:54:00.932Z,90.7
2022-09-14T04:55:01.063Z,90.7
2022-09-14T04:56:01.214Z,90.8
2022-09-14T04:57:00.351Z,90.8
2022-09-14T04:58:00.498Z,90.8
2022-09-14T04:59:00.655Z,90.9
2022-09-14T05:00:00.792Z,90.8
2022-09-14T05:01:00.947Z,90.8
2022-09-14T05:02:01.204Z,90.9
2022-09-14T05:03:01.340Z,90.9
2022-09-14T05:04:00.410Z,90.9
2022-09-14T05:05:00.532Z,91
2022-09-14T05:06:00.679Z,91
2022-09-14T05:07:00.836Z,91
2022-09-14T05:08:00.967Z,91
2022-09-14T05:09:01.153Z,91
2022-09-14T05:10:01.252Z,90.9
2022-09-14T05:11:00.412Z,90.8
2022-09-14T05:12:00.552Z,90.8
2022-09-14T05:13:00.711Z,90.8
2022-09-14T05:14:00.861Z,90.8
2022-09-14T05:15:00.989Z,90.8
2022-09-14T05:16:01.206Z,90.8
2022-09-14T05:17:00.293Z,90.8
2022-09-14T05:18:00.422Z,90.9
2022-09-14T05:19:00.575Z,90.9
2022-09-14T05:20:00.720Z,90.8
2022-09-14T05:21:04.000Z,90.8
2022-09-14T05:22:01.010Z,90.9
2022-09-14T05:23:01.145Z,90.9
2022-09-14T05:24:00.297Z,90.9
2022-09-14T05:25:00.445Z,90.9
2022-09-14T05:26:00.617Z,91
2022-09-14T05:27:02.225Z,91
2022-09-14T05:28:00.897Z,91
2022-09-14T05:29:01.051Z,91
2022-09-14T05:30:01.204Z,91
2022-09-14T05:31:00.391Z,91.1
2022-09-14T05:32:00.526Z,91.1
2022-09-14T05:33:00.651Z,91.1
2022-09-14T05:34:00.803Z,91.1
2022-09-14T05:35:00.957Z,91.1
2022-09-14T05:36:01.108Z,91.1
2022-09-14T05:37:01.274Z,91.1
2022-09-14T05:38:00.396Z,91.1
2022-09-14T05:39:00.542Z,91.1
2022-09-14T05:40:00.771Z,91.2
2022-09-14T05:41:00.868Z,91.2
2022-09-14T05:42:01.029Z,91.2
2022-09-14T05:43:01.159Z,91.2
2022-09-14T05:44:00.299Z,91.2
2022-09-14T05:45:00.459Z,91.1
2022-09-14T05:46:00.644Z,91
2022-09-14T05:47:00.782Z,91
2022-09-14T05:48:00.912Z,91.1
2022-09-14T05:49:01.064Z,91
2022-09-14T05:50:01.209Z,91.1
2022-09-14T05:51:00.348Z,91.1
2022-09-14T05:52:00.521Z,91.1
2022-09-14T05:53:00.643Z,91.1
2022-09-14T05:54:00.797Z,91.1
2022-09-14T05:55:00.952Z,91.1
2022-09-14T05:56:01.098Z,91.2
2022-09-14T05:57:01.277Z,91.2
2022-09-14T05:58:00.393Z,91.2
2022-09-14T05:59:00.607Z,91.2
2022-09-14T06:00:00.682Z,91.1
2022-09-14T06:01:00.837Z,91.1
2022-09-14T06:02:01.050Z,91.1
2022-09-14T06:03:01.163Z,91.1
2022-09-14T06:04:00.282Z,91.1
2022-09-14T06:05:00.461Z,91.1
2022-09-14T06:06:00.564Z,91.1
2022-09-14T06:07:17.929Z,91.1
2022-09-14T06:08:00.874Z,91.2
2022-09-14T06:09:01.024Z,91.2
2022-09-14T06:10:01.144Z,91.1
2022-09-14T06:11:00.304Z,91.2
2022-09-14T06:12:00.464Z,91.1
2022-09-14T06:13:00.593Z,91.1
2022-09-14T06:14:00.740Z,91.1
2022-09-14T06:15:00.882Z,91.2
2022-09-14T06:16:01.026Z,91.1
2022-09-14T06:17:01.190Z,91.2
2022-09-14T06:18:00.318Z,91.3
2022-09-14T06:19:00.459Z,91.1
2022-09-14T06:20:04.350Z,91.1
2022-09-14T06:21:00.751Z,91.2
2022-09-14T06:22:00.924Z,91.1
2022-09-14T06:23:01.042Z,91.1
2022-09-14T06:24:01.189Z,91.1
2022-09-14T06:25:00.336Z,91.1
2022-09-14T06:26:00.488Z,91.1
2022-09-14T06:27:00.633Z,91.2
2022-09-14T06:28:00.784Z,91.2
2022-09-14T06:29:00.931Z,91.2
2022-09-14T06:30:01.101Z,91.2
2022-09-14T06:31:01.220Z,91.2
2022-09-14T06:32:00.353Z,91.3
2022-09-14T06:33:00.524Z,91.3
2022-09-14T06:34:00.650Z,91.3
2022-09-14T06:35:00.879Z,91.3
2022-09-14T06:36:00.932Z,91.3
2022-09-14T06:37:01.113Z,91.3
2022-09-14T06:38:01.267Z,91.3
2022-09-14T06:39:00.399Z,91.4
2022-09-14T06:40:00.579Z,91.4
2022-09-14T06:41:00.695Z,91.3
2022-09-14T06:42:00.835Z,91.3
2022-09-14T06:43:01.010Z,91.3
2022-09-14T06:44:01.131Z,91.3
2022-09-14T06:45:00.291Z,91.3
2022-09-14T06:46:00.450Z,91.4
2022-09-14T06:47:00.597Z,91.3
2022-09-14T06:48:00.765Z,91.3
2022-09-14T06:49:00.895Z,91.3
2022-09-14T06:50:01.035Z,91.4
2022-09-14T06:51:01.182Z,91.3
2022-09-14T06:52:00.342Z,91.3
2022-09-14T06:53:00.478Z,91.3
2022-09-14T06:54:00.648Z,91.3
2022-09-14T06:55:00.785Z,91.3
2022-09-14T06:56:00.935Z,91.3
2022-09-14T06:57:01.089Z,91.3
2022-09-14T06:58:01.272Z,91.3
2022-09-14T06:59:00.394Z,91.3
2022-09-14T07:00:00.544Z,91.4
2022-09-14T07:01:00.692Z,91.4
2022-09-14T07:02:00.828Z,91.5
2022-09-14T07:03:01.077Z,91.5
2022-09-14T07:04:01.123Z,91.5
2022-09-14T07:05:00.262Z,91.6
2022-09-14T07:06:00.411Z,91.6
2022-09-14T07:07:00.547Z,91.6
2022-09-14T07:08:00.723Z,91.6
2022-09-14T07:09:00.867Z,91.6
2022-09-14T07:10:00.993Z,91.6
2022-09-14T07:11:01.143Z,91.6
2022-09-14T07:12:00.290Z,91.6
2022-09-14T07:13:00.440Z,91.6
2022-09-14T07:14:00.602Z,91.5
2022-09-14T07:15:00.732Z,91.5
2022-09-14T07:16:00.881Z,91.5
2022-09-14T07:17:01.022Z,91.5
2022-09-14T07:18:01.172Z,91.5
2022-09-14T07:19:00.336Z,91.4
2022-09-14T07:20:00.572Z,91.4
2022-09-14T07:21:05.275Z,91.4
2022-09-14T07:22:00.750Z,91.4
2022-09-14T07:23:00.901Z,91.4
2022-09-14T07:24:01.065Z,91.4
2022-09-14T07:25:01.218Z,91.4
2022-09-14T07:26:00.347Z,91.3
2022-09-14T07:27:00.486Z,91.3
2022-09-14T07:28:00.639Z,91.3
2022-09-14T07:29:00.787Z,91.3
2022-09-14T07:30:00.949Z,91.3
2022-09-14T07:31:01.235Z,91.3
2022-09-14T07:32:01.221Z,91.3
2022-09-14T07:33:00.365Z,91.3
2022-09-14T07:34:00.511Z,91.3
2022-09-14T07:35:00.664Z,91.3
2022-09-14T07:36:00.819Z,91.3
2022-09-14T07:37:00.963Z,91.3
2022-09-14T07:38:01.095Z,91.3
2022-09-14T07:39:01.239Z,91.4
2022-09-14T07:40:00.471Z,91.4
2022-09-14T07:41:00.556Z,91.4
2022-09-14T07:42:00.683Z,91.4
2022-09-14T07:43:00.841Z,91.4
2022-09-14T07:44:00.985Z,91.4
2022-09-14T07:45:01.130Z,91.4
2022-09-14T07:46:00.340Z,91.4
2022-09-14T07:47:00.443Z,91.4
2022-09-14T07:48:00.574Z,91.4
2022-09-14T07:49:00.719Z,91.4
2022-09-14T07:50:00.886Z,91.4
2022-09-14T07:51:01.027Z,91.4
2022-09-14T07:52:01.177Z,91.4
2022-09-14T07:53:00.344Z,91.5
2022-09-14T07:54:00.480Z,91.5
2022-09-14T07:55:00.624Z,91.5
2022-09-14T07:56:00.775Z,91.5
2022-09-14T07:57:00.919Z,91.5
2022-09-14T07:58:01.086Z,91.6
2022-09-14T07:59:23.802Z,91.6
2022-09-14T08:00:00.386Z,91.5
2022-09-14T08:01:00.589Z,91.5
2022-09-14T08:02:00.777Z,91.6
2022-09-14T08:03:00.814Z,91.6
2022-09-14T08:04:05.194Z,91.6
2022-09-14T08:05:01.123Z,91.6
2022-09-14T08:06:00.250Z,91.6
2022-09-14T08:07:00.400Z,91.7
2022-09-14T08:08:00.541Z,91.7
2022-09-14T08:09:00.696Z,91.7
2022-09-14T08:10:00.881Z,91.7
2022-09-14T08:11:00.989Z,91.7
2022-09-14T08:12:01.138Z,91.7
2022-09-14T08:13:00.288Z,91.6
2022-09-14T08:14:00.443Z,91.5
2022-09-14T08:15:00.616Z,91.6
2022-09-14T08:16:00.749Z,91.6
2022-09-14T08:17:00.966Z,91.6
2022-09-14T08:18:01.029Z,91.6
2022-09-14T08:19:01.175Z,91.6
2022-09-14T08:20:00.336Z,91.6
2022-09-14T08:21:00.470Z,91.6
2022-09-14T08:22:00.614Z,91.5
2022-09-14T08:23:00.773Z,91.5
2022-09-14T08:24:00.937Z,91.5
2022-09-14T08:25:01.091Z,91.5
2022-09-14T08:26:01.231Z,91.6
2022-09-14T08:27:00.375Z,91.6
2022-09-14T08:28:00.513Z,91.6
2022-09-14T08:29:00.647Z,91.6
2022-09-14T08:30:00.826Z,91.6
2022-09-14T08:31:00.952Z,91.5
2022-09-14T08:32:01.162Z,91.5
2022-09-14T08:33:01.981Z,91.6
2022-09-14T08:34:00.390Z,91.5
2022-09-14T08:35:00.567Z,91.5
2022-09-14T08:36:00.692Z,91.5
2022-09-14T08:37:00.844Z,91.5
2022-09-14T08:38:00.994Z,91.5
2022-09-14T08:39:01.112Z,91.5
2022-09-14T08:40:00.372Z,91.5
2022-09-14T08:41:00.418Z,91.6
2022-09-14T08:42:00.559Z,91.6
2022-09-14T08:43:00.713Z,91.6
2022-09-14T08:44:00.846Z,91.5
2022-09-14T08:45:00.983Z,91.5
2022-09-14T08:46:01.318Z,91.5
2022-09-14T08:47:00.283Z,91.5
2022-09-14T08:48:00.436Z,91.5
2022-09-14T08:49:00.574Z,91.5
2022-09-14T08:50:00.715Z,91.5
2022-09-14T08:51:00.865Z,91.5
2022-09-14T08:52:01.035Z,91.5
2022-09-14T08:53:01.161Z,91.5
2022-09-14T08:54:00.315Z,91.6
2022-09-14T08:55:00.465Z,91.6
2022-09-14T08:56:00.619Z,91.6
2022-09-14T08:57:00.784Z,91.6
2022-09-14T08:58:00.917Z,91.6
2022-09-14T08:59:01.064Z,91.7
2022-09-14T09:00:01.222Z,91.7
2022-09-14T09:01:00.419Z,91.8
2022-09-14T09:02:00.518Z,91.7
2022-09-14T09:03:00.646Z,91.7
2022-09-14T09:04:00.831Z,91.8
2022-09-14T09:05:00.937Z,91.8
2022-09-14T09:06:01.088Z,91.8
2022-09-14T09:07:01.255Z,91.8
2022-09-14T09:08:00.365Z,91.8
2022-09-14T09:09:00.517Z,91.9
2022-09-14T09:10:00.688Z,91.9
2022-09-14T09:11:00.821Z,91.9
2022-09-14T09:12:00.981Z,91.9
2022-09-14T09:13:01.099Z,91.9
2022-09-14T09:14:01.256Z,91.9
2022-09-14T09:15:00.397Z,91.9
2022-09-14T09:16:00.599Z,91.9
2022-09-14T09:17:00.735Z,92
2022-09-14T09:18:00.853Z,92
2022-09-14T09:19:01.010Z,92
2022-09-14T09:20:01.151Z,92
2022-09-14T09:21:00.309Z,92
2022-09-14T09:22:00.489Z,92
2022-09-14T09:23:00.604Z,91.9
2022-09-14T09:24:00.758Z,91.9
2022-09-14T09:25:00.895Z,91.9
2022-09-14T09:26:01.051Z,91.9
2022-09-14T09:27:01.211Z,91.9
2022-09-14T09:28:00.345Z,91.9
2022-09-14T09:29:00.483Z,92
2022-09-14T09:30:00.622Z,91.9
2022-09-14T09:31:00.804Z,91.9
2022-09-14T09:32:01.014Z,91.9
2022-09-14T09:33:01.076Z,91.9
2022-09-14T09:34:01.233Z,91.9
2022-09-14T09:35:00.368Z,91.9
2022-09-14T09:36:00.516Z,91.9
2022-09-14T09:37:00.669Z,92
2022-09-14T09:38:00.812Z,92
2022-09-14T09:39:04.971Z,92
2022-09-14T09:40:01.153Z,92
2022-09-14T09:41:01.240Z,91.9
2022-09-14T09:42:00.387Z,91.9
2022-09-14T09:43:00.531Z,92
2022-09-14T09:44:00.695Z,91.9
2022-09-14T09:45:02.603Z,91.9
2022-09-14T09:46:00.977Z,91.9
2022-09-14T09:47:01.223Z,92
2022-09-14T09:48:00.266Z,91.9
2022-09-14T09:49:00.431Z,92
2022-09-14T09:50:00.575Z,92
2022-09-14T09:51:00.708Z,91.9
2022-09-14T09:52:00.851Z,91.8
2022-09-14T09:53:05.999Z,91.7
2022-09-14T09:54:01.149Z,91.6
2022-09-14T09:55:00.337Z,91.5
2022-09-14T09:56:00.461Z,91.5
2022-09-14T09:57:00.612Z,91.4
2022-09-14T09:58:00.751Z,91.4
2022-09-14T09:59:00.885Z,91.2
2022-09-14T10:00:01.029Z,91.2
2022-09-14T10:01:01.345Z,91.2
2022-09-14T10:02:00.348Z,91.2
2022-09-14T10:03:00.444Z,91.2
2022-09-14T10:04:00.599Z,91.3
2022-09-14T10:05:00.745Z,91.2
2022-09-14T10:06:00.922Z,91.2
2022-09-14T10:07:01.043Z,91.1
2022-09-14T10:08:01.194Z,91.1
2022-09-14T10:09:00.346Z,91.1
2022-09-14T10:10:00.494Z,91.1
2022-09-14T10:11:00.673Z,91
2022-09-14T10:12:00.793Z,91
2022-09-14T10:13:00.943Z,90.9
2022-09-14T10:14:01.094Z,90.8
2022-09-14T10:15:01.248Z,90.7
2022-09-14T10:16:00.446Z,90.8
2022-09-14T10:17:00.528Z,90.8
2022-09-14T10:18:00.683Z,90.7
2022-09-14T10:19:00.831Z,90.6
2022-09-14T10:20:00.980Z,90.6
2022-09-14T10:21:01.151Z,90.7
2022-09-14T10:22:00.273Z,90.8
2022-09-14T10:23:00.415Z,90.8
2022-09-14T10:24:00.565Z,90.7
2022-09-14T10:25:00.713Z,90.7
2022-09-14T10:26:00.892Z,90.7
2022-09-14T10:27:01.017Z,90.8
2022-09-14T10:28:01.181Z,90.9
2022-09-14T10:29:00.321Z,90.8
2022-09-14T10:30:00.467Z,90.7
2022-09-14T10:31:00.746Z,90.6
2022-09-14T10:32:00.761Z,90.8
2022-09-14T10:33:00.909Z,90.7
2022-09-14T10:34:01.046Z,90.8
2022-09-14T10:35:01.203Z,90.7
2022-09-14T10:36:00.369Z,90.6
2022-09-14T10:37:00.508Z,90.7
2022-09-14T10:38:00.647Z,90.7
2022-09-14T10:39:00.800Z,90.9
2022-09-14T10:40:01.066Z,90.9
2022-09-14T10:41:01.127Z,90.5
2022-09-14T10:43:00.348Z,90.5
2022-09-14T10:44:00.495Z,90.6
2022-09-14T10:45:00.640Z,90.7
2022-09-14T10:46:00.879Z,90.5
2022-09-14T10:47:04.573Z,90.5
2022-09-14T10:48:01.096Z,90.4
2022-09-14T10:49:01.246Z,90.4
2022-09-14T10:50:00.396Z,90.4
2022-09-14T10:51:00.531Z,90.5
2022-09-14T10:52:00.685Z,90.5
2022-09-14T10:53:00.837Z,90.5
2022-09-14T10:54:01.041Z,90.6
2022-09-14T10:55:01.133Z,90.6
2022-09-14T10:56:00.277Z,90.7
2022-09-14T10:57:00.422Z,90.7
2022-09-14T10:58:00.593Z,90.6
2022-09-14T10:59:00.712Z,90.6
2022-09-14T11:00:00.861Z,90.7
2022-09-14T11:01:01.002Z,90.7
2022-09-14T11:02:01.323Z,90.5
2022-09-14T11:03:00.428Z,90.4
2022-09-14T11:04:00.437Z,90.4
2022-09-14T11:05:00.576Z,90.4
2022-09-14T11:06:00.721Z,90.4
2022-09-14T11:07:00.866Z,90.4
2022-09-14T11:08:01.024Z,90.5
2022-09-14T11:09:01.187Z,90.5
2022-09-14T11:10:00.297Z,90.7
2022-09-14T11:11:00.445Z,90.7
2022-09-14T11:12:00.601Z,90.5
2022-09-14T11:13:00.752Z,90.5
2022-09-14T11:14:00.915Z,90.6
2022-09-14T11:15:01.053Z,90.7
2022-09-14T11:16:01.298Z,90.8
2022-09-14T11:17:00.323Z,90.7
2022-09-14T11:18:00.469Z,90.6
2022-09-14T11:19:00.621Z,90.6
2022-09-14T11:20:00.791Z,90.6
2022-09-14T11:21:00.915Z,90.5
2022-09-14T11:22:01.055Z,90.2
2022-09-14T11:23:01.196Z,90.2
2022-09-14T11:24:00.344Z,90
2022-09-14T11:25:00.514Z,90.1
2022-09-14T11:26:00.642Z,90.1
2022-09-14T11:27:00.786Z,90.2
2022-09-14T11:28:00.945Z,90.3
2022-09-14T11:29:01.089Z,90.3
2022-09-14T11:30:01.265Z,90.3
2022-09-14T11:31:00.509Z,90
2022-09-14T11:32:19.794Z,90
2022-09-14T11:33:00.672Z,90
2022-09-14T11:34:00.822Z,90.1
2022-09-14T11:35:01.001Z,90.2
2022-09-14T11:36:01.128Z,90.3
2022-09-14T11:37:00.270Z,90.3
2022-09-14T11:38:00.436Z,90.4
2022-09-14T11:39:04.706Z,90.3
2022-09-14T11:40:00.747Z,90.1
2022-09-14T11:41:00.850Z,90.1
2022-09-14T11:42:01.005Z,90.2
2022-09-14T11:43:01.141Z,90.2
2022-09-14T11:44:00.295Z,90.2
2022-09-14T11:45:00.463Z,90.1
2022-09-14T11:46:00.635Z,89.8
2022-09-14T11:47:01.113Z,89.8
2022-09-14T11:48:00.906Z,89.8
2022-09-14T11:49:01.038Z,89.8
2022-09-14T11:50:01.211Z,89.8
2022-09-14T11:51:00.333Z,89.9
2022-09-14T11:52:00.486Z,89.9
2022-09-14T11:53:00.631Z,89.9
2022-09-14T11:54:00.802Z,90.1
2022-09-14T11:55:00.929Z,89.6
2022-09-14T11:56:01.085Z,89.4
2022-09-14T11:57:01.228Z,89.5
2022-09-14T11:58:00.366Z,89.6
2022-09-14T11:59:00.537Z,89.7
2022-09-14T12:00:00.656Z,89.9
2022-09-14T12:01:00.817Z,89.6
2022-09-14T12:02:00.965Z,89.6
2022-09-14T12:03:01.185Z,89.6
2022-09-14T12:04:00.387Z,89.6
2022-09-14T12:05:00.413Z,89.4
2022-09-14T12:06:00.571Z,89.3
2022-09-14T12:07:00.717Z,89.2
2022-09-14T12:08:00.893Z,89.3
2022-09-14T12:09:01.052Z,89.3
2022-09-14T12:10:01.160Z,89.3
2022-09-14T12:11:00.307Z,89.3
2022-09-14T12:12:00.451Z,89.4
2022-09-14T12:13:00.594Z,89.5
2022-09-14T12:14:00.758Z,89.5
2022-09-14T12:15:00.883Z,89.5
2022-09-14T12:16:01.098Z,89.5
2022-09-14T12:17:04.111Z,89.4
2022-09-14T12:18:00.322Z,89.4
2022-09-14T12:19:00.487Z,89.3
2022-09-14T12:20:00.612Z,89.5
2022-09-14T12:21:00.756Z,89.4
2022-09-14T12:22:00.907Z,89.1
2022-09-14T12:23:01.047Z,89
2022-09-14T12:24:01.224Z,88.9
2022-09-14T12:25:00.345Z,89.2
2022-09-14T12:26:00.486Z,89.5
2022-09-14T12:27:00.620Z,89.4
2022-09-14T12:28:00.759Z,89.2
2022-09-14T12:29:00.921Z,89
2022-09-14T12:30:01.083Z,89.1
2022-09-14T12:31:01.266Z,89.2
2022-09-14T12:32:00.385Z,88.9
2022-09-14T12:33:00.524Z,89
2022-09-14T12:34:00.689Z,88.8
2022-09-14T12:35:00.824Z,89
2022-09-14T12:36:00.965Z,88.9
2022-09-14T12:37:01.127Z,88.4
2022-09-14T12:38:00.263Z,88.3
2022-09-14T12:39:00.443Z,88.4
2022-09-14T12:40:00.630Z,88.5
2022-09-14T12:41:00.737Z,88.4
2022-09-14T12:42:00.885Z,88.5
2022-09-14T12:43:01.032Z,88.6
2022-09-14T12:44:01.190Z,88.7
2022-09-14T12:45:00.318Z,88.8
2022-09-14T12:46:00.534Z,88.8
2022-09-14T12:47:00.615Z,88.5
2022-09-14T12:48:00.764Z,88.5
2022-09-14T12:49:00.931Z,88.7
2022-09-14T12:50:01.094Z,87.9
2022-09-14T12:51:01.207Z,88
2022-09-14T12:52:00.354Z,87.6
2022-09-14T12:53:00.492Z,87.4
2022-09-14T12:54:00.647Z,87.3
2022-09-14T12:55:00.814Z,87.1
2022-09-14T12:56:00.931Z,87.4
2022-09-14T12:57:01.086Z,87.9
2022-09-14T12:58:01.229Z,88.2
2022-09-14T12:59:00.376Z,88.1
2022-09-14T13:00:00.538Z,88
2022-09-14T13:01:00.716Z,87.8
2022-09-14T13:02:00.959Z,87.8
2022-09-14T13:03:00.970Z,87.9
2022-09-14T13:04:01.104Z,88.1
2022-09-14T13:05:00.273Z,88
2022-09-14T13:06:00.398Z,88
2022-09-14T13:07:00.544Z,88.2
2022-09-14T13:08:00.698Z,87.6
2022-09-14T13:09:00.858Z,87.2
2022-09-14T13:10:01.015Z,87.6
2022-09-14T13:11:01.152Z,88
2022-09-14T13:12:00.288Z,88
2022-09-14T13:13:00.446Z,87
2022-09-14T13:14:00.606Z,87
2022-09-14T13:15:00.759Z,86.2
2022-09-14T13:16:00.981Z,86.1
2022-09-14T13:17:01.039Z,87
2022-09-14T13:18:01.177Z,87.1
2022-09-14T13:19:00.350Z,87.3
2022-09-14T13:20:00.489Z,87.7
2022-09-14T13:21:00.660Z,87.7
2022-09-14T13:22:00.779Z,87.8
2022-09-14T13:23:00.920Z,88
2022-09-14T13:24:01.077Z,88.2
2022-09-14T13:25:01.227Z,87.6
2022-09-14T13:26:00.388Z,87.3
2022-09-14T13:27:00.528Z,87.3